createdAt,value
2019-03-26T00:00:41.837Z,78.78
2019-03-26T00:01:41.847Z,79.25
2019-03-26T00:02:41.867Z,79.16
2019-03-26T00:03:41.876Z,78.59
2019-03-26T00:04:41.885Z,79.54
2019-03-26T00:05:41.895Z,79.25
2019-03-26T00:06:41.909Z,79.25
2019-03-26T00:07:41.921Z,79.44
2019-03-26T00:08:41.933Z,79.16
2019-03-26T00:09:41.945Z,79.16
2019-03-26T00:10:41.953Z,79.25
2019-03-26T00:11:41.966Z,79.16
2019-03-26T00:12:41.983Z,79.73
2019-03-26T00:13:41.985Z,79.63
2019-03-26T00:14:42.007Z,79.83
2019-03-26T00:15:42.012Z,80.02
2019-03-26T00:16:42.017Z,79.25
2019-03-26T00:17:42.035Z,79.92
2019-03-26T00:18:42.033Z,80.11
2019-03-26T00:19:42.063Z,79.92
2019-03-26T00:20:42.078Z,79.83
2019-03-26T00:21:42.081Z,80.11
2019-03-26T00:22:42.151Z,79.92
2019-03-26T00:23:42.109Z,79.54
2019-03-26T00:24:43.051Z,79.63
2019-03-26T00:25:42.133Z,79.83
2019-03-26T00:26:42.147Z,79.92
2019-03-26T00:27:42.170Z,79.31
2019-03-26T00:28:42.155Z,79.06
2019-03-26T00:29:42.179Z,79.31
2019-03-26T00:30:42.189Z,79.44
2019-03-26T00:31:42.199Z,80.21
2019-03-26T00:32:42.211Z,79.92
2019-03-26T00:33:42.232Z,79.60
2019-03-26T00:34:42.238Z,79.92
2019-03-26T00:35:42.237Z,80.02
2019-03-26T00:36:42.249Z,79.73
2019-03-26T00:37:42.269Z,79.63
2019-03-26T00:38:42.333Z,80.16
2019-03-26T00:39:42.292Z,79.88
2019-03-26T00:40:42.297Z,80.07
2019-03-26T00:41:42.309Z,79.97
2019-03-26T00:42:42.327Z,79.97
2019-03-26T00:43:42.338Z,80.07
2019-03-26T00:44:42.352Z,79.79
2019-03-26T00:45:42.355Z,79.79
2019-03-26T00:46:42.368Z,79.22
2019-03-26T00:47:42.377Z,79.60
2019-03-26T00:48:42.412Z,79.88
2019-03-26T00:49:42.406Z,79.88
2019-03-26T00:50:42.418Z,79.83
2019-03-26T00:51:42.429Z,79.79
2019-03-26T00:52:42.436Z,79.03
2019-03-26T00:53:42.445Z,79.92
2019-03-26T00:54:42.457Z,79.79
2019-03-26T00:55:42.471Z,79.97
2019-03-26T00:56:42.481Z,79.12
2019-03-26T00:57:42.496Z,80.07
2019-03-26T00:58:42.500Z,79.31
2019-03-26T00:59:42.510Z,79.41
2019-03-26T01:00:42.522Z,79.22
2019-03-26T01:01:42.534Z,79.31
2019-03-26T01:02:42.557Z,79.31
2019-03-26T01:03:42.571Z,79.97
2019-03-26T01:04:42.577Z,79.79
2019-03-26T01:05:42.582Z,79.25
2019-03-26T01:06:42.600Z,78.97
2019-03-26T01:07:42.615Z,79.06
2019-03-26T01:08:42.624Z,78.88
2019-03-26T01:09:42.631Z,78.88
2019-03-26T01:10:42.636Z,78.55
2019-03-26T01:11:42.660Z,78.50
2019-03-26T01:12:42.665Z,78.88
2019-03-26T01:13:42.678Z,78.21
2019-03-26T01:14:42.696Z,78.88
2019-03-26T01:15:42.702Z,78.40
2019-03-26T01:16:42.719Z,78.69
2019-03-26T01:17:42.721Z,78.30
2019-03-26T01:18:42.733Z,78.69
2019-03-26T01:19:42.744Z,78.50
2019-03-26T01:20:42.753Z,78.40
2019-03-26T01:21:42.767Z,78.97
2019-03-26T01:22:42.782Z,78.97
2019-03-26T01:23:42.789Z,78.40
2019-03-26T01:24:42.800Z,78.59
2019-03-26T01:25:42.809Z,78.11
2019-03-26T01:26:42.824Z,78.30
2019-03-26T01:27:42.840Z,78.36
2019-03-26T01:28:42.848Z,78.17
2019-03-26T01:29:42.867Z,78.45
2019-03-26T01:30:42.870Z,78.27
2019-03-26T01:31:42.883Z,78.17
2019-03-26T01:32:42.900Z,78.55
2019-03-26T01:33:42.907Z,78.55
2019-03-26T01:34:46.180Z,78.55
2019-03-26T01:35:42.922Z,78.36
2019-03-26T01:36:42.942Z,78.21
2019-03-26T01:37:42.954Z,77.92
2019-03-26T01:38:42.965Z,77.51
2019-03-26T01:39:42.975Z,77.60
2019-03-26T01:40:42.982Z,77.70
2019-03-26T01:41:43.000Z,78.11
2019-03-26T01:42:43.012Z,78.08
2019-03-26T01:43:43.024Z,77.98
2019-03-26T01:44:43.024Z,77.89
2019-03-26T01:45:43.046Z,77.60
2019-03-26T01:46:43.056Z,77.60
2019-03-26T01:47:43.068Z,77.60
2019-03-26T01:48:43.077Z,77.51
2019-03-26T01:49:43.089Z,77.03
2019-03-26T01:50:43.101Z,77.12
2019-03-26T01:51:43.109Z,77.12
2019-03-26T01:52:43.130Z,77.41
2019-03-26T01:53:43.134Z,77.22
2019-03-26T01:54:43.142Z,77.22
2019-03-26T01:55:43.156Z,77.12
2019-03-26T01:56:43.176Z,77.22
2019-03-26T01:57:43.182Z,77.41
2019-03-26T01:58:43.208Z,77.41
2019-03-26T01:59:43.200Z,77.22
2019-03-26T02:00:43.220Z,77.41
2019-03-26T02:01:43.224Z,77.22
2019-03-26T02:02:43.235Z,77.70
2019-03-26T02:03:43.246Z,77.79
2019-03-26T02:04:43.260Z,77.22
2019-03-26T02:05:43.260Z,77.12
2019-03-26T02:06:43.290Z,77.51
2019-03-26T02:07:43.306Z,77.41
2019-03-26T02:08:43.306Z,77.51
2019-03-26T02:09:43.314Z,76.84
2019-03-26T02:10:43.328Z,76.93
2019-03-26T02:11:43.342Z,76.93
2019-03-26T02:12:43.354Z,77.12
2019-03-26T02:13:43.364Z,76.93
2019-03-26T02:14:43.372Z,76.75
2019-03-26T02:15:43.384Z,77.12
2019-03-26T02:16:43.396Z,76.93
2019-03-26T02:17:43.396Z,77.22
2019-03-26T02:18:43.416Z,76.37
2019-03-26T02:19:43.434Z,76.84
2019-03-26T02:20:43.438Z,77.03
2019-03-26T02:21:43.452Z,77.22
2019-03-26T02:22:43.464Z,76.56
2019-03-26T02:23:43.472Z,76.08
2019-03-26T02:24:43.485Z,76.56
2019-03-26T02:25:43.494Z,75.99
2019-03-26T02:26:43.516Z,76.27
2019-03-26T02:27:43.517Z,76.46
2019-03-26T02:28:43.531Z,76.46
2019-03-26T02:29:43.543Z,75.99
2019-03-26T02:30:43.553Z,76.18
2019-03-26T02:31:43.567Z,76.08
2019-03-26T02:32:43.574Z,76.08
2019-03-26T02:33:43.581Z,75.99
2019-03-26T02:34:43.597Z,75.89
2019-03-26T02:35:43.602Z,75.51
2019-03-26T02:36:43.618Z,75.70
2019-03-26T02:37:43.635Z,75.79
2019-03-26T02:38:43.644Z,75.89
2019-03-26T02:39:43.661Z,76.08
2019-03-26T02:40:43.662Z,75.42
2019-03-26T02:41:43.679Z,75.32
2019-03-26T02:42:43.690Z,75.23
2019-03-26T02:43:43.709Z,75.13
2019-03-26T02:44:43.708Z,74.94
2019-03-26T02:45:43.730Z,74.75
2019-03-26T02:46:43.728Z,75.32
2019-03-26T02:47:43.746Z,75.32
2019-03-26T02:48:43.824Z,75.13
2019-03-26T02:49:43.792Z,75.23
2019-03-26T02:50:43.773Z,74.66
2019-03-26T02:51:43.796Z,74.47
2019-03-26T02:52:43.802Z,74.94
2019-03-26T02:53:43.841Z,74.85
2019-03-26T02:54:43.820Z,73.90
2019-03-26T02:55:43.830Z,74.18
2019-03-26T02:56:43.844Z,74.66
2019-03-26T02:57:43.854Z,73.80
2019-03-26T02:58:43.869Z,74.37
2019-03-26T02:59:43.880Z,73.71
2019-03-26T03:00:43.896Z,73.23
2019-03-26T03:01:43.886Z,73.23
2019-03-26T03:02:43.907Z,73.04
2019-03-26T03:03:43.923Z,72.47
2019-03-26T03:04:43.937Z,72.85
2019-03-26T03:05:43.935Z,73.23
2019-03-26T03:06:43.966Z,73.42
2019-03-26T03:07:43.965Z,73.33
2019-03-26T03:08:43.980Z,73.23
2019-03-26T03:09:43.989Z,72.00
2019-03-26T03:10:43.993Z,72.09
2019-03-26T03:11:44.035Z,72.19
2019-03-26T03:12:44.023Z,71.90
2019-03-26T03:13:44.033Z,72.09
2019-03-26T03:14:44.044Z,72.00
2019-03-26T03:15:44.055Z,71.43
2019-03-26T03:16:44.071Z,72.00
2019-03-26T03:17:44.078Z,72.09
2019-03-26T03:18:44.090Z,71.43
2019-03-26T03:19:44.099Z,71.33
2019-03-26T03:20:44.578Z,71.33
2019-03-26T03:21:44.130Z,71.71
2019-03-26T03:22:44.188Z,71.23
2019-03-26T03:23:44.146Z,71.62
2019-03-26T03:24:44.175Z,72.00
2019-03-26T03:25:44.173Z,71.43
2019-03-26T03:26:44.203Z,71.43
2019-03-26T03:27:44.198Z,71.90
2019-03-26T03:28:44.224Z,72.28
2019-03-26T03:29:44.214Z,72.19
2019-03-26T03:30:44.234Z,71.62
2019-03-26T03:31:44.240Z,71.71
2019-03-26T03:32:44.260Z,71.81
2019-03-26T03:33:44.280Z,71.62
2019-03-26T03:34:44.284Z,71.81
2019-03-26T03:35:51.841Z,71.90
2019-03-26T03:36:44.318Z,71.90
2019-03-26T03:37:44.307Z,71.90
2019-03-26T03:38:44.324Z,71.90
2019-03-26T03:39:44.339Z,71.90
2019-03-26T03:40:44.346Z,72.00
2019-03-26T03:41:44.369Z,72.19
2019-03-26T03:42:44.364Z,72.09
2019-03-26T03:43:44.374Z,72.28
2019-03-26T03:44:44.398Z,72.28
2019-03-26T03:45:44.409Z,72.00
2019-03-26T03:46:44.415Z,71.52
2019-03-26T03:47:44.423Z,71.71
2019-03-26T03:48:44.432Z,71.81
2019-03-26T03:49:44.445Z,72.19
2019-03-26T03:50:44.466Z,71.43
2019-03-26T03:51:44.471Z,71.81
2019-03-26T03:52:44.485Z,70.76
2019-03-26T03:53:44.616Z,70.29
2019-03-26T03:54:44.504Z,70.48
2019-03-26T03:55:44.520Z,71.14
2019-03-26T03:56:44.534Z,71.14
2019-03-26T03:57:44.545Z,71.04
2019-03-26T03:58:44.554Z,71.23
2019-03-26T03:59:44.562Z,71.43
2019-03-26T04:00:44.571Z,71.43
2019-03-26T04:01:44.582Z,71.14
2019-03-26T04:02:44.596Z,71.04
2019-03-26T04:03:44.613Z,71.33
2019-03-26T04:04:44.621Z,71.43
2019-03-26T04:05:44.632Z,71.62
2019-03-26T04:06:44.642Z,71.33
2019-03-26T04:07:44.655Z,71.33
2019-03-26T04:08:44.670Z,71.43
2019-03-26T04:09:44.677Z,72.19
2019-03-26T04:10:44.688Z,71.71
2019-03-26T04:11:44.713Z,71.81
2019-03-26T04:12:44.715Z,72.00
2019-03-26T04:13:44.721Z,71.90
2019-03-26T04:14:44.734Z,72.28
2019-03-26T04:15:44.751Z,72.00
2019-03-26T04:16:44.762Z,72.00
2019-03-26T04:17:44.768Z,72.66
2019-03-26T04:18:44.784Z,72.38
2019-03-26T04:19:44.798Z,72.47
2019-03-26T04:20:44.811Z,72.47
2019-03-26T04:21:44.812Z,73.04
2019-03-26T04:22:44.828Z,73.23
2019-03-26T04:23:44.837Z,73.23
2019-03-26T04:24:44.849Z,73.33
2019-03-26T04:25:44.860Z,73.14
2019-03-26T04:26:44.872Z,73.14
2019-03-26T04:27:44.882Z,73.61
2019-03-26T04:28:44.910Z,73.71
2019-03-26T04:29:44.911Z,73.33
2019-03-26T04:30:44.907Z,73.71
2019-03-26T04:31:44.930Z,73.71
2019-03-26T04:32:44.940Z,73.61
2019-03-26T04:33:44.945Z,74.27
2019-03-26T04:34:44.963Z,73.61
2019-03-26T04:35:44.986Z,73.71
2019-03-26T04:36:44.991Z,74.56
2019-03-26T04:37:44.993Z,74.18
2019-03-26T04:38:45.017Z,74.37
2019-03-26T04:39:45.021Z,73.71
2019-03-26T04:40:45.035Z,74.47
2019-03-26T04:41:45.041Z,74.18
2019-03-26T04:42:45.058Z,74.08
2019-03-26T04:43:45.053Z,74.27
2019-03-26T04:44:45.585Z,74.66
2019-03-26T04:45:45.090Z,74.27
2019-03-26T04:46:45.177Z,74.47
2019-03-26T04:47:45.105Z,74.08
2019-03-26T04:48:45.127Z,74.27
2019-03-26T04:49:45.131Z,74.27
2019-03-26T04:50:45.167Z,74.37
2019-03-26T04:51:45.146Z,74.37
2019-03-26T04:52:45.167Z,73.61
2019-03-26T04:53:45.182Z,73.14
2019-03-26T04:54:45.184Z,72.95
2019-03-26T04:55:45.213Z,72.85
2019-03-26T04:56:45.213Z,72.38
2019-03-26T04:57:45.227Z,71.81
2019-03-26T04:58:45.233Z,72.00
2019-03-26T04:59:45.246Z,72.19
2019-03-26T05:00:45.257Z,71.90
2019-03-26T05:01:45.271Z,72.28
2019-03-26T05:02:45.278Z,72.28
2019-03-26T05:03:45.288Z,72.00
2019-03-26T05:04:45.307Z,72.09
2019-03-26T05:05:45.321Z,72.19
2019-03-26T05:06:45.332Z,72.28
2019-03-26T05:07:45.342Z,71.90
2019-03-26T05:08:45.344Z,72.28
2019-03-26T05:09:45.367Z,72.19
2019-03-26T05:10:45.365Z,71.90
2019-03-26T05:11:45.383Z,71.90
2019-03-26T05:12:45.399Z,72.19
2019-03-26T05:13:45.405Z,72.19
2019-03-26T05:14:45.418Z,72.47
2019-03-26T05:15:45.415Z,72.38
2019-03-26T05:16:45.466Z,72.28
2019-03-26T05:17:45.447Z,72.47
2019-03-26T05:18:45.460Z,73.52
2019-03-26T05:19:45.474Z,73.04
2019-03-26T05:20:45.488Z,72.28
2019-03-26T05:21:45.495Z,72.19
2019-03-26T05:22:45.505Z,72.28
2019-03-26T05:23:45.518Z,72.19
2019-03-26T05:24:45.529Z,72.19
2019-03-26T05:25:45.537Z,71.43
2019-03-26T05:26:45.554Z,71.81
2019-03-26T05:27:45.972Z,72.66
2019-03-26T05:28:45.580Z,72.00
2019-03-26T05:29:45.603Z,71.43
2019-03-26T05:30:45.595Z,71.14
2019-03-26T05:31:45.607Z,71.04
2019-03-26T05:32:45.622Z,70.76
2019-03-26T05:33:45.631Z,70.86
2019-03-26T05:34:45.638Z,70.48
2019-03-26T05:35:45.651Z,70.76
2019-03-26T05:36:51.321Z,70.38
2019-03-26T05:37:45.679Z,70.38
2019-03-26T05:38:45.713Z,70.29
2019-03-26T05:39:45.695Z,69.43
2019-03-26T05:40:45.709Z,69.34
2019-03-26T05:41:45.707Z,69.05
2019-03-26T05:42:45.731Z,70.00
2019-03-26T05:43:45.745Z,69.43
2019-03-26T05:44:45.754Z,70.38
2019-03-26T05:45:45.761Z,70.29
2019-03-26T05:46:45.778Z,70.38
2019-03-26T05:47:45.878Z,70.29
2019-03-26T05:48:45.801Z,70.95
2019-03-26T05:49:45.895Z,70.48
2019-03-26T05:50:45.822Z,69.81
2019-03-26T05:51:45.950Z,70.10
2019-03-26T05:52:45.851Z,70.19
2019-03-26T05:53:45.862Z,70.10
2019-03-26T05:54:45.868Z,70.19
2019-03-26T05:55:45.890Z,70.10
2019-03-26T05:56:45.890Z,69.91
2019-03-26T05:57:45.922Z,71.14
2019-03-26T05:58:45.910Z,70.76
2019-03-26T05:59:45.934Z,70.29
2019-03-26T06:00:45.938Z,70.48
2019-03-26T06:01:45.951Z,70.48
2019-03-26T06:02:45.962Z,70.19
2019-03-26T06:03:45.971Z,70.48
2019-03-26T06:04:45.984Z,70.38
2019-03-26T06:05:45.991Z,70.38
2019-03-26T06:06:46.006Z,70.57
2019-03-26T06:07:46.018Z,70.29
2019-03-26T06:08:46.023Z,70.67
2019-03-26T06:09:46.041Z,70.57
2019-03-26T06:10:46.052Z,70.38
2019-03-26T06:11:46.074Z,70.48
2019-03-26T06:12:46.075Z,70.57
2019-03-26T06:13:46.086Z,70.57
2019-03-26T06:14:46.098Z,70.48
2019-03-26T06:15:46.105Z,70.76
2019-03-26T06:16:46.121Z,70.76
2019-03-26T06:17:46.130Z,70.95
2019-03-26T06:18:46.138Z,70.86
2019-03-26T06:19:46.151Z,70.67
2019-03-26T06:20:46.160Z,70.86
2019-03-26T06:21:46.174Z,70.76
2019-03-26T06:22:46.192Z,70.48
2019-03-26T06:23:46.197Z,69.43
2019-03-26T06:24:46.205Z,69.53
2019-03-26T06:25:46.223Z,69.71
2019-03-26T06:26:46.228Z,69.34
2019-03-26T06:27:46.247Z,69.53
2019-03-26T06:28:46.256Z,69.53
2019-03-26T06:29:46.262Z,69.43
2019-03-26T06:30:46.276Z,69.43
2019-03-26T06:31:46.285Z,69.71
2019-03-26T06:32:46.331Z,69.62
2019-03-26T06:33:46.309Z,69.91
2019-03-26T06:34:46.329Z,69.71
2019-03-26T06:35:46.333Z,69.62
2019-03-26T06:36:46.367Z,70.29
2019-03-26T06:37:46.350Z,70.48
2019-03-26T06:38:46.370Z,70.29
2019-03-26T06:39:46.378Z,70.67
2019-03-26T06:40:46.386Z,70.76
2019-03-26T06:41:46.402Z,70.95
2019-03-26T06:42:46.425Z,71.04
2019-03-26T06:43:46.422Z,70.86
2019-03-26T06:44:46.472Z,71.04
2019-03-26T06:45:46.441Z,71.71
2019-03-26T06:46:46.462Z,71.43
2019-03-26T06:47:46.468Z,71.33
2019-03-26T06:48:46.470Z,72.09
2019-03-26T06:49:46.490Z,72.00
2019-03-26T06:50:46.589Z,72.19
2019-03-26T06:51:46.519Z,71.81
2019-03-26T06:52:46.522Z,72.19
2019-03-26T06:53:46.540Z,72.19
2019-03-26T06:54:46.546Z,72.09
2019-03-26T06:55:46.561Z,72.00
2019-03-26T06:56:46.576Z,72.19
2019-03-26T06:57:46.578Z,71.90
2019-03-26T06:58:46.590Z,72.00
2019-03-26T06:59:46.591Z,72.09
2019-03-26T07:00:46.611Z,72.09
2019-03-26T07:01:46.626Z,71.43
2019-03-26T07:02:46.634Z,71.62
2019-03-26T07:03:46.646Z,71.62
2019-03-26T07:04:46.652Z,71.14
2019-03-26T07:05:46.670Z,70.86
2019-03-26T07:06:46.680Z,71.14
2019-03-26T07:07:46.691Z,71.43
2019-03-26T07:08:46.704Z,70.76
2019-03-26T07:09:46.712Z,70.19
2019-03-26T07:10:46.716Z,69.66
2019-03-26T07:11:46.738Z,69.15
2019-03-26T07:12:46.758Z,69.24
2019-03-26T07:13:46.753Z,68.48
2019-03-26T07:14:46.772Z,68.01
2019-03-26T07:15:46.782Z,67.34
2019-03-26T07:16:46.793Z,67.34
2019-03-26T07:17:46.810Z,67.72
2019-03-26T07:18:46.816Z,67.34
2019-03-26T07:19:46.834Z,67.63
2019-03-26T07:20:46.842Z,67.72
2019-03-26T07:21:49.733Z,67.44
2019-03-26T07:22:46.864Z,67.72
2019-03-26T07:23:46.872Z,67.06
2019-03-26T07:24:46.892Z,67.34
2019-03-26T07:25:46.898Z,67.06
2019-03-26T07:26:46.908Z,67.72
2019-03-26T07:27:46.920Z,67.53
2019-03-26T07:28:46.934Z,67.53
2019-03-26T07:29:46.940Z,67.44
2019-03-26T07:30:46.954Z,67.63
2019-03-26T07:31:46.958Z,68.04
2019-03-26T07:32:46.980Z,68.23
2019-03-26T07:33:46.985Z,67.91
2019-03-26T07:34:47.002Z,67.94
2019-03-26T07:35:47.014Z,67.53
2019-03-26T07:36:47.022Z,67.63
2019-03-26T07:37:47.030Z,67.94
2019-03-26T07:38:47.040Z,67.57
2019-03-26T07:39:47.055Z,67.66
2019-03-26T07:40:47.072Z,68.04
2019-03-26T07:41:47.153Z,67.38
2019-03-26T07:42:47.095Z,66.90
2019-03-26T07:43:47.100Z,67.09
2019-03-26T07:44:47.194Z,67.00
2019-03-26T07:45:47.129Z,67.38
2019-03-26T07:46:47.175Z,67.47
2019-03-26T07:47:47.146Z,67.38
2019-03-26T07:48:47.158Z,67.44
2019-03-26T07:49:47.168Z,67.85
2019-03-26T07:50:47.178Z,67.85
2019-03-26T07:51:47.197Z,67.57
2019-03-26T07:52:47.208Z,67.57
2019-03-26T07:53:47.218Z,67.09
2019-03-26T07:54:47.260Z,66.80
2019-03-26T07:55:47.238Z,65.76
2019-03-26T07:56:47.248Z,65.38
2019-03-26T07:57:47.270Z,65.47
2019-03-26T07:58:47.272Z,65.76
2019-03-26T07:59:47.287Z,65.63
2019-03-26T08:00:47.291Z,66.61
2019-03-26T08:01:47.305Z,66.05
2019-03-26T08:02:47.320Z,66.90
2019-03-26T08:03:47.341Z,66.05
2019-03-26T08:04:47.342Z,65.95
2019-03-26T08:05:47.364Z,65.47
2019-03-26T08:06:47.370Z,64.24
2019-03-26T08:07:57.797Z,64.24
2019-03-26T08:08:47.386Z,64.62
2019-03-26T08:09:47.400Z,64.72
2019-03-26T08:10:47.412Z,64.53
2019-03-26T08:11:47.426Z,63.67
2019-03-26T08:12:47.455Z,63.29
2019-03-26T08:13:47.456Z,63.76
2019-03-26T08:14:47.467Z,63.20
2019-03-26T08:15:47.486Z,62.62
2019-03-26T08:16:47.524Z,62.72
2019-03-26T08:17:47.492Z,62.43
2019-03-26T08:18:47.501Z,62.53
2019-03-26T08:19:47.517Z,62.53
2019-03-26T08:20:47.531Z,62.15
2019-03-26T08:21:47.541Z,62.43
2019-03-26T08:22:47.546Z,62.43
2019-03-26T08:23:47.569Z,62.72
2019-03-26T08:24:47.579Z,62.72
2019-03-26T08:25:47.593Z,62.34
2019-03-26T08:26:47.597Z,62.24
2019-03-26T08:27:47.615Z,61.77
2019-03-26T08:28:47.625Z,62.37
2019-03-26T08:29:47.639Z,61.90
2019-03-26T08:30:50.163Z,61.80
2019-03-26T08:31:47.667Z,62.08
2019-03-26T08:32:47.675Z,62.46
2019-03-26T08:33:47.684Z,61.99
2019-03-26T08:34:47.709Z,61.80
2019-03-26T08:35:47.712Z,62.08
2019-03-26T08:36:47.719Z,61.80
2019-03-26T08:37:47.735Z,61.61
2019-03-26T08:38:47.750Z,61.61
2019-03-26T08:39:47.759Z,61.90
2019-03-26T08:40:47.779Z,61.71
2019-03-26T08:41:47.777Z,62.08
2019-03-26T08:42:47.789Z,62.18
2019-03-26T08:43:47.804Z,62.27
2019-03-26T08:44:47.818Z,62.27
2019-03-26T08:45:47.832Z,62.08
2019-03-26T08:46:47.851Z,62.65
2019-03-26T08:47:47.853Z,62.21
2019-03-26T08:48:47.878Z,61.42
2019-03-26T08:49:47.869Z,61.42
2019-03-26T08:50:47.897Z,61.61
2019-03-26T08:51:48.019Z,61.99
2019-03-26T08:52:47.921Z,61.32
2019-03-26T08:53:47.942Z,61.23
2019-03-26T08:54:47.947Z,61.74
2019-03-26T08:55:47.961Z,61.35
2019-03-26T08:56:47.967Z,60.47
2019-03-26T08:57:47.992Z,61.45
2019-03-26T08:58:47.993Z,60.41
2019-03-26T08:59:48.020Z,59.55
2019-03-26T09:00:48.020Z,59.36
2019-03-26T09:01:48.045Z,59.55
2019-03-26T09:02:48.045Z,58.98
2019-03-26T09:03:48.072Z,58.79
2019-03-26T09:04:48.081Z,57.87
2019-03-26T09:05:48.088Z,57.67
2019-03-26T09:06:48.101Z,57.67
2019-03-26T09:07:48.111Z,57.58
2019-03-26T09:08:48.121Z,58.34
2019-03-26T09:09:48.140Z,58.34
2019-03-26T09:10:52.015Z,58.44
2019-03-26T09:11:48.167Z,58.44
2019-03-26T09:12:48.177Z,58.72
2019-03-26T09:13:48.185Z,58.72
2019-03-26T09:14:48.204Z,58.81
2019-03-26T09:15:48.228Z,59.74
2019-03-26T09:16:48.227Z,59.74
2019-03-26T09:17:48.245Z,60.12
2019-03-26T09:18:48.255Z,60.41
2019-03-26T09:19:48.277Z,60.21
2019-03-26T09:20:48.289Z,60.44
2019-03-26T09:21:48.298Z,60.05
2019-03-26T09:22:48.311Z,59.39
2019-03-26T09:23:48.335Z,58.91
2019-03-26T09:24:48.340Z,58.44
2019-03-26T09:25:48.358Z,58.62
2019-03-26T09:26:48.371Z,59.01
2019-03-26T09:27:48.380Z,59.20
2019-03-26T09:28:48.379Z,59.55
2019-03-26T09:29:48.404Z,59.83
2019-03-26T09:30:48.445Z,60.50
2019-03-26T09:31:49.122Z,60.31
2019-03-26T09:32:48.470Z,60.31
2019-03-26T09:33:48.461Z,60.50
2019-03-26T09:34:48.553Z,60.53
2019-03-26T09:35:48.488Z,59.58
2019-03-26T09:36:48.515Z,59.96
2019-03-26T09:37:48.509Z,60.53
2019-03-26T09:38:48.549Z,61.00
2019-03-26T09:39:48.542Z,61.29
2019-03-26T09:40:48.560Z,61.26
2019-03-26T09:41:48.563Z,60.82
2019-03-26T09:42:48.581Z,60.44
2019-03-26T09:43:48.593Z,59.83
2019-03-26T09:44:48.609Z,60.41
2019-03-26T09:45:48.623Z,61.35
2019-03-26T09:46:48.651Z,61.48
2019-03-26T09:47:48.643Z,61.16
2019-03-26T09:48:48.661Z,61.07
2019-03-26T09:49:48.669Z,61.86
2019-03-26T09:50:48.687Z,61.93
2019-03-26T09:51:48.705Z,62.40
2019-03-26T09:52:48.714Z,62.88
2019-03-26T09:53:48.727Z,63.45
2019-03-26T09:54:48.736Z,62.97
2019-03-26T09:55:48.758Z,63.07
2019-03-26T09:56:48.789Z,63.35
2019-03-26T09:57:48.777Z,63.73
2019-03-26T09:58:48.800Z,63.35
2019-03-26T09:59:48.807Z,63.17
2019-03-26T10:00:49.033Z,63.54
2019-03-26T10:01:48.833Z,63.45
2019-03-26T10:02:48.844Z,62.69
2019-03-26T10:03:48.867Z,62.05
2019-03-26T10:04:48.873Z,61.19
2019-03-26T10:05:48.883Z,60.34
2019-03-26T10:06:48.896Z,60.08
2019-03-26T10:07:48.927Z,59.13
2019-03-26T10:08:52.793Z,58.84
2019-03-26T10:09:48.937Z,59.03
2019-03-26T10:10:48.957Z,59.13
2019-03-26T10:11:48.969Z,59.20
2019-03-26T10:12:48.985Z,59.77
2019-03-26T10:13:49.013Z,60.34
2019-03-26T10:14:49.017Z,61.00
2019-03-26T10:15:49.029Z,60.82
2019-03-26T10:16:49.043Z,60.91
2019-03-26T10:17:49.055Z,61.00
2019-03-26T10:18:49.072Z,61.00
2019-03-26T10:19:49.085Z,61.77
2019-03-26T10:20:49.102Z,61.07
2019-03-26T10:21:49.115Z,61.74
2019-03-26T10:22:49.137Z,62.40
2019-03-26T10:23:49.144Z,62.78
2019-03-26T10:24:49.153Z,62.49
2019-03-26T10:25:49.169Z,61.93
2019-03-26T10:26:49.181Z,61.45
2019-03-26T10:27:49.193Z,61.26
2019-03-26T10:28:49.215Z,61.26
2019-03-26T10:29:49.222Z,61.07
2019-03-26T10:30:49.244Z,60.88
2019-03-26T10:31:49.251Z,60.82
2019-03-26T10:32:49.279Z,61.29
2019-03-26T10:33:49.275Z,61.77
2019-03-26T10:34:49.296Z,61.48
2019-03-26T10:35:49.314Z,61.77
2019-03-26T10:36:49.319Z,61.48
2019-03-26T10:37:49.363Z,60.72
2019-03-26T10:38:49.340Z,60.63
2019-03-26T10:39:49.345Z,60.05
2019-03-26T10:40:49.369Z,59.96
2019-03-26T10:41:49.390Z,60.34
2019-03-26T10:42:49.398Z,60.02
2019-03-26T10:43:49.408Z,60.50
2019-03-26T10:44:49.429Z,60.21
2019-03-26T10:45:49.434Z,60.78
2019-03-26T10:46:49.444Z,60.78
2019-03-26T10:47:49.460Z,60.12
2019-03-26T10:48:49.483Z,60.97
2019-03-26T10:49:49.487Z,61.45
2019-03-26T10:50:49.505Z,61.55
2019-03-26T10:51:49.511Z,61.74
2019-03-26T10:52:49.545Z,62.30
2019-03-26T10:53:49.536Z,62.78
2019-03-26T10:54:49.553Z,63.26
2019-03-26T10:55:49.568Z,63.54
2019-03-26T10:56:49.587Z,63.45
2019-03-26T10:57:49.596Z,62.49
2019-03-26T10:58:49.607Z,62.69
2019-03-26T10:59:49.614Z,62.59
2019-03-26T11:00:49.633Z,62.88
2019-03-26T11:01:49.647Z,63.17
2019-03-26T11:02:49.654Z,63.54
2019-03-26T11:03:49.662Z,63.64
2019-03-26T11:04:49.684Z,64.40
2019-03-26T11:05:49.694Z,64.59
2019-03-26T11:06:49.703Z,64.78
2019-03-26T11:07:49.716Z,64.78
2019-03-26T11:08:49.734Z,64.87
2019-03-26T11:09:49.747Z,64.78
2019-03-26T11:10:49.751Z,64.78
2019-03-26T11:11:49.772Z,64.97
2019-03-26T11:12:49.780Z,65.73
2019-03-26T11:13:49.790Z,65.92
2019-03-26T11:14:49.803Z,66.20
2019-03-26T11:15:49.814Z,65.64
2019-03-26T11:16:49.911Z,65.73
2019-03-26T11:17:49.842Z,65.54
2019-03-26T11:18:49.861Z,66.02
2019-03-26T11:19:49.870Z,65.83
2019-03-26T11:21:01.720Z,65.54
2019-03-26T11:21:49.889Z,65.25
2019-03-26T11:22:49.904Z,64.97
2019-03-26T11:23:49.908Z,65.54
2019-03-26T11:24:49.932Z,66.11
2019-03-26T11:25:49.935Z,65.38
2019-03-26T11:26:49.958Z,65.19
2019-03-26T11:27:49.982Z,65.25
2019-03-26T11:28:49.982Z,64.87
2019-03-26T11:29:50.010Z,64.72
2019-03-26T11:30:50.006Z,64.05
2019-03-26T11:31:50.116Z,63.67
2019-03-26T11:32:50.038Z,63.54
2019-03-26T11:33:50.054Z,63.64
2019-03-26T11:34:50.058Z,64.40
2019-03-26T11:35:50.074Z,64.02
2019-03-26T11:36:50.088Z,64.02
2019-03-26T11:37:50.181Z,64.02
2019-03-26T11:38:50.114Z,64.31
2019-03-26T11:39:50.120Z,64.05
2019-03-26T11:40:50.139Z,64.15
2019-03-26T11:41:50.162Z,64.05
2019-03-26T11:42:50.163Z,64.34
2019-03-26T11:43:50.178Z,64.53
2019-03-26T11:44:50.191Z,64.24
2019-03-26T11:45:50.206Z,63.48
2019-03-26T11:46:50.215Z,63.57
2019-03-26T11:47:50.226Z,63.67
2019-03-26T11:48:50.243Z,63.10
2019-03-26T11:49:50.252Z,62.43
2019-03-26T11:50:50.272Z,62.56
2019-03-26T11:51:50.282Z,61.54
2019-03-26T11:52:50.290Z,59.76
2019-03-26T11:53:50.302Z,58.33
2019-03-26T11:54:50.330Z,57.73
2019-03-26T11:55:50.333Z,57.95
2019-03-26T11:56:50.350Z,57.07
2019-03-26T11:57:50.363Z,57.35
2019-03-26T11:58:50.382Z,57.99
2019-03-26T11:59:50.388Z,58.37
2019-03-26T12:00:50.405Z,57.86
2019-03-26T12:01:52.505Z,57.50
2019-03-26T12:02:50.438Z,56.74
2019-03-26T12:03:50.453Z,57.54
2019-03-26T12:04:50.457Z,57.73
2019-03-26T12:05:50.479Z,58.87
2019-03-26T12:06:50.532Z,58.94
2019-03-26T12:07:50.516Z,59.70
2019-03-26T12:08:50.528Z,60.08
2019-03-26T12:09:50.536Z,60.46
2019-03-26T12:10:50.552Z,60.85
2019-03-26T12:11:50.570Z,61.19
2019-03-26T12:12:50.592Z,62.05
2019-03-26T12:13:50.596Z,62.34
2019-03-26T12:14:50.619Z,62.24
2019-03-26T12:15:50.626Z,62.05
2019-03-26T12:16:50.636Z,62.62
2019-03-26T12:17:50.658Z,62.24
2019-03-26T12:18:50.675Z,62.24
2019-03-26T12:19:50.690Z,61.86
2019-03-26T12:20:50.700Z,62.15
2019-03-26T12:21:50.717Z,63.01
2019-03-26T12:22:50.730Z,63.39
2019-03-26T12:23:50.744Z,63.48
2019-03-26T12:24:50.756Z,63.10
2019-03-26T12:25:50.774Z,63.64
2019-03-26T12:26:50.781Z,63.57
2019-03-26T12:27:50.797Z,63.67
2019-03-26T12:28:50.815Z,63.64
2019-03-26T12:29:50.821Z,63.67
2019-03-26T12:30:50.842Z,63.39
2019-03-26T12:31:50.852Z,62.62
2019-03-26T12:32:50.867Z,62.43
2019-03-26T12:33:50.878Z,61.90
2019-03-26T12:34:50.892Z,61.32
2019-03-26T12:35:50.909Z,60.40
2019-03-26T12:36:50.926Z,58.91
2019-03-26T12:37:50.936Z,58.43
2019-03-26T12:38:50.947Z,57.86
2019-03-26T12:39:59.537Z,57.86
2019-03-26T12:40:50.978Z,57.22
2019-03-26T12:41:50.993Z,56.36
2019-03-26T12:42:51.007Z,55.31
2019-03-26T12:43:51.017Z,55.50
2019-03-26T12:44:51.035Z,56.36
2019-03-26T12:45:51.043Z,56.17
2019-03-26T12:46:51.076Z,55.43
2019-03-26T12:47:51.077Z,54.13
2019-03-26T12:48:51.093Z,53.36
2019-03-26T12:49:51.111Z,53.36
2019-03-26T12:50:51.127Z,54.03
2019-03-26T12:51:51.143Z,54.67
2019-03-26T12:52:51.153Z,54.45